Willits, CA (95490)

5:54 AM PDT on August 29, 2015 (GMT -0700)
Mendocino College Willits | | Change Station
CLOSE
Current Station
Personal Weather Station
Location: Willits, CA
Elevation: 1355 ft
Nearby Weather Stations

Elev 1355 ft 39.41 °N, 123.35 °W | Updated 4 minutes ago

Overcast
Overcast
61.6 °F
Feels Like 61.6 °F
N
0.0
Wind Variable Wind from SW
Gusts 0.0 mph

Today
High -- | Low -- °F
--% Chance of Precip.
Yesterday
High -- | Low -- °F
Precip. -- in
6:38 AM 7:49 PM
Full, 100% visible
Pressure 29.88 in
Visibility 10.0 miles
Clouds Overcast 2100 ft
Dew Point 60 °F
Humidity 95%
Rainfall 0.11 in
Snow Depth Not available.
UV 0 out of 12
Pollen 3.70 out of 12
Air Quality Not available.
Flu Activity Not available.
METAR KUKI 291156Z AUTO 14006KT 10SM OVC021 19/15 A2991 RMK AO2 SLP119 T01940150 10233 20194 53004
Pressure 29.88 in
Visibility 10.0 miles
Clouds Overcast 2100 ft
Dew Point 60 °F
Humidity 95%
Rainfall 0.11 in
Snow Depth Not available.
UV 0 out of 12
Pollen 3.70 out of 12
Air Quality Not available.
Flu Activity Not available.
METAR KUKI 291156Z AUTO 14006KT 10SM OVC021 19/15 A2991 RMK AO2 SLP119 T01940150 10233 20194 53004

10-Day Weather Forecast

×

Almanac

Astronomy

Aug. 29, 2015 Rise Set
Actual Time
Civil Twilight
Nautical Twilight
Astronomical Twilight
Moon
Length of Visible Light
Length of Day
Tomorrow will be .
, % of the Moon is Illuminated

Today's Extremes

State Highs State Lows

Community

WunderPhotos

Upload Photos

1,850,677 photos uploaded!

WunderBlogs® & News

Nearby

Air Quality

  Air Quality AQ Index Pollutant
Not available.

Snow Depth

Station Depth Elevation

Earthquake Activity

City Distance Mag. Time & Date
Minimum magnitude displayed is 2.5.

Coastal Water Temperatures

Place Temperature

Stations

Nearby Weather Stations

Station Location Temp. Windchill Dew Point Humidity Wind Precip. Elev Updated Type